sensor_id;sensor_type;location;lat;lon;timestamp;pressure;altitude;pressure_sealevel;temperature;humidity
48614;BME280;34408;51.426;5.444;2023-04-26T01:09:43;101875.00;;;8.98;51.04
48614;BME280;34408;51.426;5.444;2023-04-26T01:12:11;101883.03;;;8.98;50.38
48614;BME280;34408;51.426;5.444;2023-04-26T01:14:39;101884.06;;;8.97;50.56
48614;BME280;34408;51.426;5.444;2023-04-26T01:17:07;101889.41;;;8.97;50.57
48614;BME280;34408;51.426;5.444;2023-04-26T01:19:35;101877.22;;;8.94;50.37
48614;BME280;34408;51.426;5.444;2023-04-26T01:22:03;101879.25;;;8.92;51.14
48614;BME280;34408;51.426;5.444;2023-04-26T01:24:34;101877.59;;;8.91;50.48
48614;BME280;34408;51.426;5.444;2023-04-26T01:27:02;101883.13;;;8.90;50.95
48614;BME280;34408;51.426;5.444;2023-04-26T01:29:30;101885.81;;;8.90;50.37
48614;BME280;34408;51.426;5.444;2023-04-26T01:31:58;101885.81;;;8.90;50.36
48614;BME280;34408;51.426;5.444;2023-04-26T01:41:38;101886.75;;;8.82;51.35
48614;BME280;34408;51.426;5.444;2023-04-26T01:44:06;101889.44;;;8.82;51.00
48614;BME280;34408;51.426;5.444;2023-04-26T01:46:34;101890.81;;;8.78;51.24
48614;BME280;34408;51.426;5.444;2023-04-26T01:49:02;101889.78;;;8.79;50.33
48614;BME280;34408;51.426;5.444;2023-04-26T01:51:29;101883.78;;;8.77;50.97
48614;BME280;34408;51.426;5.444;2023-04-26T01:53:58;101878.41;;;8.77;50.64
48614;BME280;34408;51.426;5.444;2023-04-26T01:56:25;101876.94;;;8.74;50.69
48614;BME280;34408;51.426;5.444;2023-04-26T01:58:54;101884.34;;;8.72;50.93
48614;BME280;34408;51.426;5.444;2023-04-26T02:01:22;101883.69;;;8.70;50.83
48614;BME280;34408;51.426;5.444;2023-04-26T02:03:51;101885.53;;;8.70;51.39
48614;BME280;34408;51.426;5.444;2023-04-26T02:06:19;101884.69;;;8.69;51.21
48614;BME280;34408;51.426;5.444;2023-04-26T02:08:47;101886.72;;;8.67;50.86
48614;BME280;34408;51.426;5.444;2023-04-26T02:11:15;101879.75;;;8.66;51.26
48614;BME280;34408;51.426;5.444;2023-04-26T02:13:42;101883.44;;;8.65;51.35
48614;BME280;34408;51.426;5.444;2023-04-26T02:16:11;101880.28;;;8.62;50.69
48614;BME280;34408;51.426;5.444;2023-04-26T02:18:41;101884.00;;;8.61;50.42
48614;BME280;34408;51.426;5.444;2023-04-26T02:21:10;101890.38;;;8.60;50.92
48614;BME280;34408;51.426;5.444;2023-04-26T02:23:37;101882.31;;;8.60;51.17
48614;BME280;34408;51.426;5.444;2023-04-26T02:26:06;101884.34;;;8.58;51.38
48614;BME280;34408;51.426;5.444;2023-04-26T02:28:33;101880.66;;;8.59;51.12
48614;BME280;34408;51.426;5.444;2023-04-26T02:31:01;101875.03;;;8.54;51.23
48614;BME280;34408;51.426;5.444;2023-04-26T02:33:30;101876.69;;;8.55;50.45
48614;BME280;34408;51.426;5.444;2023-04-26T02:36:01;101867.53;;;8.49;50.89
48614;BME280;34408;51.426;5.444;2023-04-26T02:38:29;101874.56;;;8.50;51.51
48614;BME280;34408;51.426;5.444;2023-04-26T02:40:57;101874.75;;;8.48;51.26
48614;BME280;34408;51.426;5.444;2023-04-26T02:43:25;101873.91;;;8.48;51.03
48614;BME280;34408;51.426;5.444;2023-04-26T02:45:53;101873.91;;;8.48;51.00
48614;BME280;34408;51.426;5.444;2023-04-26T02:48:24;101872.44;;;8.45;51.27
48614;BME280;34408;51.426;5.444;2023-04-26T02:50:53;101878.78;;;8.44;50.99
48614;BME280;34408;51.426;5.444;2023-04-26T02:53:20;101877.13;;;8.43;50.76
48614;BME280;34408;51.426;5.444;2023-04-26T02:55:48;101864.75;;;8.42;50.77
48614;BME280;34408;51.426;5.444;2023-04-26T02:58:16;101869.09;;;8.43;51.33
48614;BME280;34408;51.426;5.444;2023-04-26T03:00:45;101859.41;;;8.42;50.88
48614;BME280;34408;51.426;5.444;2023-04-26T03:03:14;101859.41;;;8.42;50.86
48614;BME280;34408;51.426;5.444;2023-04-26T03:05:42;101862.06;;;8.42;51.72
48614;BME280;34408;51.426;5.444;2023-04-26T03:08:11;101859.41;;;8.42;50.39
48614;BME280;34408;51.426;5.444;2023-04-26T03:10:39;101860.41;;;8.41;50.75
48614;BME280;34408;51.426;5.444;2023-04-26T03:13:07;101859.56;;;8.41;51.19
48614;BME280;34408;51.426;5.444;2023-04-26T03:15:34;101853.56;;;8.39;51.59
48614;BME280;34408;51.426;5.444;2023-04-26T03:18:02;101847.25;;;8.32;50.81
48614;BME280;34408;51.426;5.444;2023-04-26T03:20:30;101867.97;;;8.38;51.15
48614;BME280;34408;51.426;5.444;2023-04-26T03:22:58;101864.84;;;8.34;51.07
48614;BME280;34408;51.426;5.444;2023-04-26T03:25:27;101861.97;;;8.36;50.31
48614;BME280;34408;51.426;5.444;2023-04-26T03:27:54;101858.47;;;8.35;50.61
48614;BME280;34408;51.426;5.444;2023-04-26T03:30:22;101847.25;;;8.32;51.04
48614;BME280;34408;51.426;5.444;2023-04-26T03:32:50;101859.66;;;8.33;51.07
48614;BME280;34408;51.426;5.444;2023-04-26T03:35:18;101849.47;;;8.28;51.04
48614;BME280;34408;51.426;5.444;2023-04-26T03:37:46;101858.78;;;8.32;51.15
48614;BME280;34408;51.426;5.444;2023-04-26T03:40:14;101850.09;;;8.30;51.47
48614;BME280;34408;51.426;5.444;2023-04-26T03:42:44;101845.94;;;8.28;51.08
48614;BME280;34408;51.426;5.444;2023-04-26T03:45:11;101850.47;;;8.27;51.33
48614;BME280;34408;51.426;5.444;2023-04-26T03:47:39;101847.78;;;8.27;51.13
48614;BME280;34408;51.426;5.444;2023-04-26T03:50:07;101852.31;;;8.27;51.29
48614;BME280;34408;51.426;5.444;2023-04-26T03:52:35;101849.00;;;8.25;51.16
48614;BME280;34408;51.426;5.444;2023-04-26T03:55:04;101849.16;;;8.23;50.97
48614;BME280;34408;51.426;5.444;2023-04-26T03:57:34;101857.38;;;8.22;51.26
48614;BME280;34408;51.426;5.444;2023-04-26T04:00:04;101849.53;;;8.20;50.63
48614;BME280;34408;51.426;5.444;2023-04-26T04:02:35;101853.22;;;8.19;51.16
48614;BME280;34408;51.426;5.444;2023-04-26T04:05:03;101857.09;;;8.16;51.50
48614;BME280;34408;51.426;5.444;2023-04-26T04:07:31;101860.59;;;8.17;51.60
48614;BME280;34408;51.426;5.444;2023-04-26T04:10:00;101852.94;;;8.14;51.08
48614;BME280;34408;51.426;5.444;2023-04-26T04:12:27;101853.94;;;8.13;51.03
48614;BME280;34408;51.426;5.444;2023-04-26T04:14:55;101844.16;;;8.05;51.44
48614;BME280;34408;51.426;5.444;2023-04-26T04:17:24;101858.66;;;8.11;50.90
48614;BME280;34408;51.426;5.444;2023-04-26T04:19:52;101857.00;;;8.10;51.67
48614;BME280;34408;51.426;5.444;2023-04-26T04:22:20;101852.81;;;8.07;50.84
48614;BME280;34408;51.426;5.444;2023-04-26T04:24:47;101853.84;;;8.06;50.94
48614;BME280;34408;51.426;5.444;2023-04-26T04:27:15;101853.66;;;8.08;51.27
48614;BME280;34408;51.426;5.444;2023-04-26T04:29:43;101856.53;;;8.06;51.39
48614;BME280;34408;51.426;5.444;2023-04-26T04:32:11;101858.53;;;8.04;50.92
48614;BME280;34408;51.426;5.444;2023-04-26T04:34:41;101864.06;;;8.03;51.56
48614;BME280;34408;51.426;5.444;2023-04-26T04:37:20;101856.88;;;8.03;51.45
48614;BME280;34408;51.426;5.444;2023-04-26T04:39:48;101857.25;;;8.00;51.03
48614;BME280;34408;51.426;5.444;2023-04-26T04:42:16;101868.13;;;7.99;51.19
48614;BME280;34408;51.426;5.444;2023-04-26T04:44:43;101862.94;;;7.97;51.14
48614;BME280;34408;51.426;5.444;2023-04-26T04:47:12;101871.16;;;7.96;51.74
48614;BME280;34408;51.426;5.444;2023-04-26T04:49:42;101871.81;;;7.98;51.15
48614;BME280;34408;51.426;5.444;2023-04-26T04:52:09;101867.47;;;7.97;51.47
48614;BME280;34408;51.426;5.444;2023-04-26T04:54:37;101876.50;;;7.96;51.90
48614;BME280;34408;51.426;5.444;2023-04-26T04:57:05;101878.34;;;7.95;52.09
48614;BME280;34408;51.426;5.444;2023-04-26T04:59:33;101874.84;;;7.95;51.29
48614;BME280;34408;51.426;5.444;2023-04-26T05:02:00;101881.22;;;7.94;51.18
48614;BME280;34408;51.426;5.444;2023-04-26T05:04:28;101883.91;;;7.94;51.67
48614;BME280;34408;51.426;5.444;2023-04-26T05:07:01;101882.22;;;7.93;52.29
48614;BME280;34408;51.426;5.444;2023-04-26T05:09:29;101883.06;;;7.93;52.08
48614;BME280;34408;51.426;5.444;2023-04-26T05:11:56;101882.22;;;7.93;52.05
48614;BME280;34408;51.426;5.444;2023-04-26T05:14:24;101877.72;;;7.93;51.94
48614;BME280;34408;51.426;5.444;2023-04-26T05:16:52;101880.03;;;7.96;51.58
48614;BME280;34408;51.426;5.444;2023-04-26T05:19:20;101874.19;;;7.93;51.97
48614;BME280;34408;51.426;5.444;2023-04-26T05:21:48;101887.22;;;7.96;52.44
48614;BME280;34408;51.426;5.444;2023-04-26T05:24:17;101884.38;;;7.97;52.09
48614;BME280;34408;51.426;5.444;2023-04-26T05:26:44;101884.53;;;7.96;52.29
48614;BME280;34408;51.426;5.444;2023-04-26T05:29:12;101889.06;;;7.95;51.62
48614;BME280;34408;51.426;5.444;2023-04-26T05:31:40;101890.06;;;7.94;52.39
48614;BME280;34408;51.426;5.444;2023-04-26T05:34:07;101884.72;;;7.94;51.90
48614;BME280;34408;51.426;5.444;2023-04-26T05:36:35;101890.06;;;7.94;52.26
48614;BME280;34408;51.426;5.444;2023-04-26T05:39:03;101893.59;;;7.95;52.12
48614;BME280;34408;51.426;5.444;2023-04-26T05:41:33;101893.75;;;7.93;52.14
48614;BME280;34408;51.426;5.444;2023-04-26T05:44:01;101893.59;;;7.95;52.24
48614;BME280;34408;51.426;5.444;2023-04-26T05:46:29;101893.75;;;7.93;52.18
48614;BME280;34408;51.426;5.444;2023-04-26T05:48:56;101898.47;;;7.91;52.38
48614;BME280;34408;51.426;5.444;2023-04-26T05:51:24;101892.09;;;7.92;52.96
48614;BME280;34408;51.426;5.444;2023-04-26T05:53:53;101896.25;;;7.95;52.39
48614;BME280;34408;51.426;5.444;2023-04-26T05:56:21;101896.25;;;7.95;52.42
48614;BME280;34408;51.426;5.444;2023-04-26T05:58:50;101894.59;;;7.94;53.13
48614;BME280;34408;51.426;5.444;2023-04-26T06:01:18;101886.38;;;7.95;52.31
48614;BME280;34408;51.426;5.444;2023-04-26T06:03:46;101888.06;;;7.96;52.81
48614;BME280;34408;51.426;5.444;2023-04-26T06:06:15;101899.59;;;7.97;52.95
48614;BME280;34408;51.426;5.444;2023-04-26T06:08:43;101891.75;;;7.95;53.14
48614;BME280;34408;51.426;5.444;2023-04-26T06:11:11;101894.25;;;7.97;52.93
48614;BME280;34408;51.426;5.444;2023-04-26T06:13:39;101894.91;;;7.99;52.86
48614;BME280;34408;51.426;5.444;2023-04-26T06:16:08;101902.94;;;7.99;52.60
48614;BME280;34408;51.426;5.444;2023-04-26T06:18:36;101912.44;;;8.01;53.45
48614;BME280;34408;51.426;5.444;2023-04-26T06:21:04;101912.25;;;8.03;53.50
48614;BME280;34408;51.426;5.444;2023-04-26T06:23:32;101910.13;;;7.98;53.26
48614;BME280;34408;51.426;5.444;2023-04-26T06:26:00;101905.59;;;7.99;54.16
48614;BME280;34408;51.426;5.444;2023-04-26T06:28:27;101907.91;;;8.02;53.48
48614;BME280;34408;51.426;5.444;2023-04-26T06:30:55;101912.25;;;8.03;53.79
48614;BME280;34408;51.426;5.444;2023-04-26T06:33:24;101918.28;;;8.05;54.21
48614;BME280;34408;51.426;5.444;2023-04-26T06:35:52;101917.25;;;8.06;53.82
48614;BME280;34408;51.426;5.444;2023-04-26T06:38:20;101927.97;;;8.06;54.10
48614;BME280;34408;51.426;5.444;2023-04-26T06:40:47;101926.13;;;8.06;53.56
48614;BME280;34408;51.426;5.444;2023-04-26T06:43:15;101926.97;;;8.07;53.36
48614;BME280;34408;51.426;5.444;2023-04-26T06:45:43;101927.63;;;8.09;54.13
48614;BME280;34408;51.426;5.444;2023-04-26T06:48:11;101927.44;;;8.10;54.27
48614;BME280;34408;51.426;5.444;2023-04-26T06:50:40;101927.06;;;8.13;53.99
48614;BME280;34408;51.426;5.444;2023-04-26T06:53:08;101927.38;;;8.19;53.61
48614;BME280;34408;51.426;5.444;2023-04-26T06:55:35;101919.56;;;8.32;53.45
48614;BME280;34408;51.426;5.444;2023-04-26T06:58:03;101925.16;;;8.45;53.19
48614;BME280;34408;51.426;5.444;2023-04-26T07:00:31;101922.06;;;8.56;52.59
48614;BME280;34408;51.426;5.444;2023-04-26T07:03:02;101925.38;;;8.73;52.54
48614;BME280;34408;51.426;5.444;2023-04-26T07:05:30;101919.84;;;8.89;51.89
48614;BME280;34408;51.426;5.444;2023-04-26T07:07:59;101924.91;;;9.13;51.01
48614;BME280;34408;51.426;5.444;2023-04-26T07:10:27;101920.00;;;9.32;51.20
48614;BME280;34408;51.426;5.444;2023-04-26T07:12:55;101933.84;;;9.50;49.88
48614;BME280;34408;51.426;5.444;2023-04-26T07:15:23;101926.41;;;9.67;49.59
48614;BME280;34408;51.426;5.444;2023-04-26T07:17:50;101924.88;;;9.79;49.82
48614;BME280;34408;51.426;5.444;2023-04-26T07:20:18;101926.06;;;9.91;49.59
48614;BME280;34408;51.426;5.444;2023-04-26T07:22:48;101921.19;;;10.01;48.90
48614;BME280;34408;51.426;5.444;2023-04-26T07:25:17;101918.81;;;10.13;48.68
48614;BME280;34408;51.426;5.444;2023-04-26T07:27:45;101931.50;;;10.19;48.54
48614;BME280;34408;51.426;5.444;2023-04-26T07:30:13;101928.44;;;10.22;48.66
48614;BME280;34408;51.426;5.444;2023-04-26T07:32:41;101924.75;;;10.23;48.91
48614;BME280;34408;51.426;5.444;2023-04-26T07:35:10;101922.69;;;10.25;48.61
48614;BME280;34408;51.426;5.444;2023-04-26T07:37:42;101920.25;;;10.30;48.73
48614;BME280;34408;51.426;5.444;2023-04-26T07:40:11;101915.13;;;10.35;48.70
48614;BME280;34408;51.426;5.444;2023-04-26T07:42:40;101901.69;;;10.35;48.44
48614;BME280;34408;51.426;5.444;2023-04-26T07:45:09;101912.72;;;10.47;48.08
48614;BME280;34408;51.426;5.444;2023-04-26T07:47:37;101906.13;;;10.50;48.38
48614;BME280;34408;51.426;5.444;2023-04-26T07:50:06;101908.47;;;10.59;48.09
48614;BME280;34408;51.426;5.444;2023-04-26T07:52:34;101902.31;;;10.65;48.14
48614;BME280;34408;51.426;5.444;2023-04-26T07:55:02;101910.22;;;10.73;47.89
48614;BME280;34408;51.426;5.444;2023-04-26T07:57:30;101908.16;;;10.75;47.98
48614;BME280;34408;51.426;5.444;2023-04-26T07:59:59;101918.22;;;10.67;48.32
48614;BME280;34408;51.426;5.444;2023-04-26T08:02:27;101919.16;;;10.53;48.26
48614;BME280;34408;51.426;5.444;2023-04-26T08:05:09;101917.63;;;10.37;49.26
48614;BME280;34408;51.426;5.444;2023-04-26T08:07:38;101918.91;;;10.20;49.31
48614;BME280;34408;51.426;5.444;2023-04-26T08:10:06;101935.06;;;10.05;50.06
48614;BME280;34408;51.426;5.444;2023-04-26T08:12:35;101933.84;;;9.86;50.26
48614;BME280;34408;51.426;5.444;2023-04-26T08:15:05;101939.72;;;9.75;50.61
48614;BME280;34408;51.426;5.444;2023-04-26T08:17:33;101940.41;;;9.62;50.93
48614;BME280;34408;51.426;5.444;2023-04-26T08:20:01;101944.22;;;9.53;51.30
48614;BME280;34408;51.426;5.444;2023-04-26T08:22:30;101938.13;;;9.44;51.23
48614;BME280;34408;51.426;5.444;2023-04-26T08:24:58;101933.50;;;9.38;50.91
48614;BME280;34408;51.426;5.444;2023-04-26T08:27:26;101929.34;;;9.36;51.22
48614;BME280;34408;51.426;5.444;2023-04-26T08:29:54;101936.75;;;9.34;51.61
48614;BME280;34408;51.426;5.444;2023-04-26T08:32:23;101920.19;;;9.30;51.30
48614;BME280;34408;51.426;5.444;2023-04-26T08:34:51;101932.13;;;9.28;51.71
48614;BME280;34408;51.426;5.444;2023-04-26T08:37:19;101927.78;;;9.27;51.76
48614;BME280;34408;51.426;5.444;2023-04-26T08:39:47;101930.47;;;9.27;51.95
48614;BME280;34408;51.426;5.444;2023-04-26T08:42:16;101930.47;;;9.27;51.45
48614;BME280;34408;51.426;5.444;2023-04-26T08:44:44;101927.13;;;9.25;51.75
48614;BME280;34408;51.426;5.444;2023-04-26T08:47:15;101921.59;;;9.26;51.81
48614;BME280;34408;51.426;5.444;2023-04-26T08:49:46;101908.47;;;9.17;51.96
48614;BME280;34408;51.426;5.444;2023-04-26T08:52:18;101922.13;;;9.22;51.83
48614;BME280;34408;51.426;5.444;2023-04-26T08:54:49;101916.31;;;9.18;51.67
48614;BME280;34408;51.426;5.444;2023-04-26T08:57:18;101915.66;;;9.16;51.69
48614;BME280;34408;51.426;5.444;2023-04-26T08:59:46;101920.19;;;9.16;51.76
48614;BME280;34408;51.426;5.444;2023-04-26T09:02:17;101927.69;;;9.35;51.29
48614;BME280;34408;51.426;5.444;2023-04-26T09:04:47;101928.75;;;9.55;50.67
48614;BME280;34408;51.426;5.444;2023-04-26T09:07:20;101931.28;;;9.78;49.64
48614;BME280;34408;51.426;5.444;2023-04-26T09:09:49;101920.28;;;9.94;49.23
48614;BME280;34408;51.426;5.444;2023-04-26T09:12:18;101918.38;;;10.09;48.10
48614;BME280;34408;51.426;5.444;2023-04-26T09:14:46;101910.78;;;10.34;47.68
48614;BME280;34408;51.426;5.444;2023-04-26T09:17:25;101906.22;;;10.63;46.77
48614;BME280;34408;51.426;5.444;2023-04-26T09:19:54;101915.47;;;10.88;46.22
48614;BME280;34408;51.426;5.444;2023-04-26T09:22:29;101899.78;;;10.92;45.87
48614;BME280;34408;51.426;5.444;2023-04-26T09:24:58;101904.69;;;10.82;46.37
48614;BME280;34408;51.426;5.444;2023-04-26T09:27:34;101903.13;;;10.66;46.83
48614;BME280;34408;51.426;5.444;2023-04-26T09:30:05;101909.81;;;10.49;47.57
48614;BME280;34408;51.426;5.444;2023-04-26T09:32:50;101907.00;;;10.29;47.35
48614;BME280;34408;51.426;5.444;2023-04-26T09:35:25;101904.63;;;10.19;48.04
48614;BME280;34408;51.426;5.444;2023-04-26T09:37:55;101909.63;;;10.01;47.78
48614;BME280;34408;51.426;5.444;2023-04-26T09:40:32;101912.63;;;9.91;47.73
48614;BME280;34408;51.426;5.444;2023-04-26T09:43:01;101909.50;;;9.88;48.43
48614;BME280;34408;51.426;5.444;2023-04-26T09:45:32;101918.56;;;9.87;48.68
48614;BME280;34408;51.426;5.444;2023-04-26T09:48:17;101914.41;;;9.84;48.72
48614;BME280;34408;51.426;5.444;2023-04-26T09:50:50;101917.28;;;9.83;48.24
48614;BME280;34408;51.426;5.444;2023-04-26T09:53:31;101908.41;;;9.82;48.97
48614;BME280;34408;51.426;5.444;2023-04-26T09:56:06;101902.00;;;9.83;49.02
48614;BME280;34408;51.426;5.444;2023-04-26T09:58:36;101904.50;;;9.85;49.13
48614;BME280;34408;51.426;5.444;2023-04-26T10:01:06;101907.81;;;9.87;49.16
48614;BME280;34408;51.426;5.444;2023-04-26T10:03:35;101904.13;;;9.88;49.75
48614;BME280;34408;51.426;5.444;2023-04-26T10:06:05;101900.41;;;9.89;49.50
48614;BME280;34408;51.426;5.444;2023-04-26T10:08:34;101895.69;;;9.91;50.14
48614;BME280;34408;51.426;5.444;2023-04-26T10:11:03;101889.22;;;9.85;50.19
48614;BME280;34408;51.426;5.444;2023-04-26T10:13:33;101903.75;;;9.91;50.16
48614;BME280;34408;51.426;5.444;2023-04-26T10:16:02;101904.56;;;9.91;49.59
48614;BME280;34408;51.426;5.444;2023-04-26T10:18:30;101905.59;;;9.90;49.46
48614;BME280;34408;51.426;5.444;2023-04-26T10:21:01;101905.03;;;9.95;49.80
48614;BME280;34408;51.426;5.444;2023-04-26T10:23:31;101896.13;;;9.94;50.09
48614;BME280;34408;51.426;5.444;2023-04-26T10:25:59;101905.03;;;9.95;49.47
48614;BME280;34408;51.426;5.444;2023-04-26T10:28:53;101900.28;;;9.97;50.25
48614;BME280;34408;51.426;5.444;2023-04-26T10:34:30;101895.75;;;9.97;49.83
48614;BME280;34408;51.426;5.444;2023-04-26T10:37:11;101893.88;;;9.98;49.59
48614;BME280;34408;51.426;5.444;2023-04-26T10:39:41;101888.53;;;9.98;49.59
48614;BME280;34408;51.426;5.444;2023-04-26T10:42:23;101891.00;;;9.99;49.74
48614;BME280;34408;51.426;5.444;2023-04-26T10:44:53;101884.81;;;9.99;49.28
48614;BME280;34408;51.426;5.444;2023-04-26T10:47:32;101881.09;;;10.00;48.92
48614;BME280;34408;51.426;5.444;2023-04-26T10:50:04;101882.13;;;9.99;48.82
48614;BME280;34408;51.426;5.444;2023-04-26T10:52:33;101879.63;;;9.97;48.09
48614;BME280;34408;51.426;5.444;2023-04-26T10:55:03;101873.03;;;10.00;48.42
48614;BME280;34408;51.426;5.444;2023-04-26T10:57:49;101877.41;;;10.01;48.27
48614;BME280;34408;51.426;5.444;2023-04-26T11:00:28;101878.22;;;10.01;48.13
48614;BME280;34408;51.426;5.444;2023-04-26T11:03:02;101877.97;;;9.96;46.74
48614;BME280;34408;51.426;5.444;2023-04-26T11:05:41;101872.78;;;9.95;46.24
48614;BME280;34408;51.426;5.444;2023-04-26T11:08:15;101872.41;;;9.98;47.38
48614;BME280;34408;51.426;5.444;2023-04-26T11:10:50;101877.19;;;10.02;47.90
48614;BME280;34408;51.426;5.444;2023-04-26T11:13:18;101875.16;;;10.04;46.63
48614;BME280;34408;51.426;5.444;2023-04-26T11:15:51;101861.72;;;10.04;46.57
48614;BME280;34408;51.426;5.444;2023-04-26T11:18:19;101862.56;;;10.05;47.11
48614;BME280;34408;51.426;5.444;2023-04-26T11:20:48;101861.72;;;10.04;46.53
48614;BME280;34408;51.426;5.444;2023-04-26T11:23:17;101855.59;;;10.10;46.74
48614;BME280;34408;51.426;5.444;2023-04-26T11:25:46;101865.31;;;10.11;46.53
48614;BME280;34408;51.426;5.444;2023-04-26T11:28:15;101866.78;;;10.14;46.58
48614;BME280;34408;51.426;5.444;2023-04-26T11:30:42;101856.84;;;10.15;47.10
48614;BME280;34408;51.426;5.444;2023-04-26T11:33:15;101850.66;;;10.14;47.30
48614;BME280;34408;51.426;5.444;2023-04-26T11:35:45;101852.94;;;10.17;46.50
48614;BME280;34408;51.426;5.444;2023-04-26T11:38:13;101847.38;;;10.19;47.27
48614;BME280;34408;51.426;5.444;2023-04-26T11:40:41;101847.84;;;10.22;47.26
48614;BME280;34408;51.426;5.444;2023-04-26T11:43:12;101844.16;;;10.23;46.57
48614;BME280;34408;51.426;5.444;2023-04-26T11:45:41;101834.03;;;10.25;47.37
48614;BME280;34408;51.426;5.444;2023-04-26T11:48:09;101840.88;;;10.28;47.52
48614;BME280;34408;51.426;5.444;2023-04-26T11:50:39;101838.38;;;10.26;47.09
48614;BME280;34408;51.426;5.444;2023-04-26T11:53:08;101849.31;;;10.25;46.06
48614;BME280;34408;51.426;5.444;2023-04-26T11:55:36;101846.19;;;10.21;45.66
48614;BME280;34408;51.426;5.444;2023-04-26T11:58:11;101849.72;;;10.22;46.45
48614;BME280;34408;51.426;5.444;2023-04-26T12:00:54;101854.50;;;10.26;45.85
48614;BME280;34408;51.426;5.444;2023-04-26T12:03:23;101861.34;;;10.29;46.42
48614;BME280;34408;51.426;5.444;2023-04-26T12:05:53;101852.88;;;10.32;46.63
48614;BME280;34408;51.426;5.444;2023-04-26T12:08:23;101860.75;;;10.33;46.37
48614;BME280;34408;51.426;5.444;2023-04-26T12:10:51;101852.31;;;10.36;45.98
48614;BME280;34408;51.426;5.444;2023-04-26T12:13:20;101853.13;;;10.37;45.89
48614;BME280;34408;51.426;5.444;2023-04-26T12:15:48;101848.59;;;10.37;46.11
48614;BME280;34408;51.426;5.444;2023-04-26T12:18:18;101844.03;;;10.38;45.49
48614;BME280;34408;51.426;5.444;2023-04-26T12:20:46;101851.28;;;10.37;45.71
48614;BME280;34408;51.426;5.444;2023-04-26T12:23:15;101846.94;;;10.36;45.26
48614;BME280;34408;51.426;5.444;2023-04-26T12:25:51;101848.78;;;10.36;45.32
48614;BME280;34408;51.426;5.444;2023-04-26T12:28:22;101842.56;;;10.35;44.91
48614;BME280;34408;51.426;5.444;2023-04-26T12:30:50;101858.31;;;10.38;44.63
48614;BME280;34408;51.426;5.444;2023-04-26T12:33:18;101850.84;;;10.40;45.03
48614;BME280;34408;51.426;5.444;2023-04-26T12:35:48;101861.41;;;10.42;44.71
48614;BME280;34408;51.426;5.444;2023-04-26T12:38:17;101856.22;;;10.40;44.62
48614;BME280;34408;51.426;5.444;2023-04-26T12:40:45;101841.94;;;10.33;45.11
48614;BME280;34408;51.426;5.444;2023-04-26T12:43:13;101860.56;;;10.41;44.98
48614;BME280;34408;51.426;5.444;2023-04-26T12:45:43;101852.50;;;10.41;44.75
48614;BME280;34408;51.426;5.444;2023-04-26T12:48:11;101856.03;;;10.42;44.77
48614;BME280;34408;51.426;5.444;2023-04-26T12:50:39;101855.00;;;10.43;44.62
48614;BME280;34408;51.426;5.444;2023-04-26T12:53:07;101863.91;;;10.43;44.93
48614;BME280;34408;51.426;5.444;2023-04-26T12:55:36;101863.69;;;10.45;44.72
48614;BME280;34408;51.426;5.444;2023-04-26T12:58:04;101851.94;;;10.46;44.90
48614;BME280;34408;51.426;5.444;2023-04-26T13:00:32;101852.56;;;10.48;44.76
48614;BME280;34408;51.426;5.444;2023-04-26T13:03:01;101846.97;;;10.50;44.98
48614;BME280;34408;51.426;5.444;2023-04-26T13:05:29;101840.38;;;10.52;45.17
48614;BME280;34408;51.426;5.444;2023-04-26T13:07:57;101846.59;;;10.53;45.34
48614;BME280;34408;51.426;5.444;2023-04-26T13:10:27;101838.13;;;10.56;45.14
48614;BME280;34408;51.426;5.444;2023-04-26T13:12:55;101841.47;;;10.58;45.08
48614;BME280;34408;51.426;5.444;2023-04-26T13:15:24;101840.94;;;10.75;44.83
48614;BME280;34408;51.426;5.444;2023-04-26T13:17:52;101827.16;;;10.92;44.56
48614;BME280;34408;51.426;5.444;2023-04-26T13:20:21;101836.38;;;11.17;43.22
48614;BME280;34408;51.426;5.444;2023-04-26T13:22:52;101839.13;;;11.37;43.02
48614;BME280;34408;51.426;5.444;2023-04-26T13:25:20;101840.81;;;11.45;43.13
48614;BME280;34408;51.426;5.444;2023-04-26T13:27:48;101846.63;;;11.55;43.12
48614;BME280;34408;51.426;5.444;2023-04-26T13:30:19;101847.91;;;11.65;42.18
48614;BME280;34408;51.426;5.444;2023-04-26T13:32:46;101840.03;;;11.70;42.07
48614;BME280;34408;51.426;5.444;2023-04-26T13:35:15;101841.34;;;11.94;41.94
48614;BME280;34408;51.426;5.444;2023-04-26T13:37:44;101851.50;;;12.12;41.74
48614;BME280;34408;51.426;5.444;2023-04-26T13:40:12;101835.69;;;12.29;40.93
48614;BME280;34408;51.426;5.444;2023-04-26T13:42:40;101841.28;;;12.47;40.68
48614;BME280;34408;51.426;5.444;2023-04-26T13:45:10;101842.09;;;12.48;40.50
48614;BME280;34408;51.426;5.444;2023-04-26T13:47:44;101838.19;;;12.37;41.04
48614;BME280;34408;51.426;5.444;2023-04-26T13:50:12;101842.97;;;12.22;41.11
48614;BME280;34408;51.426;5.444;2023-04-26T13:52:39;101849.00;;;11.97;40.88
48614;BME280;34408;51.426;5.444;2023-04-26T13:55:09;101841.28;;;11.74;40.92
48614;BME280;34408;51.426;5.444;2023-04-26T13:57:37;101844.56;;;11.63;41.38
48614;BME280;34408;51.426;5.444;2023-04-26T14:00:07;101836.28;;;11.58;42.20
48614;BME280;34408;51.426;5.444;2023-04-26T14:02:36;101840.63;;;11.53;42.35
48614;BME280;34408;51.426;5.444;2023-04-26T14:05:05;101839.78;;;11.52;42.96
48614;BME280;34408;51.426;5.444;2023-04-26T14:07:33;101839.59;;;11.54;43.19
48614;BME280;34408;51.426;5.444;2023-04-26T14:10:01;101827.78;;;11.55;43.26
48614;BME280;34408;51.426;5.444;2023-04-26T14:12:31;101832.13;;;11.56;42.46
48614;BME280;34408;51.426;5.444;2023-04-26T14:14:58;101828.63;;;11.55;42.80
48614;BME280;34408;51.426;5.444;2023-04-26T14:17:28;101836.69;;;11.55;43.19
48614;BME280;34408;51.426;5.444;2023-04-26T14:19:57;101829.63;;;11.48;42.89
48614;BME280;34408;51.426;5.444;2023-04-26T14:22:25;101835.00;;;11.48;42.75
48614;BME280;34408;51.426;5.444;2023-04-26T14:24:53;101840.19;;;11.49;42.99
48614;BME280;34408;51.426;5.444;2023-04-26T14:27:21;101837.31;;;11.51;43.14